Time;durP1;ratioP1;P1;durP2;ratioP2;P2;SDS_P1;SDS_P2;PMS_P1;PMS_P2;Temp;Humidity;BMP_temperature;BMP_pressure;BME280_temperature;BME280_humidity;BME280_pressure;Samples;Min_cycle;Max_cycle;Signal;HPM_P1;HPM_P2
2024/01/31 00:00:07;;;;;;;4.63;1.45;;;;;;;;;;5074031;28;20040;-82
2024/01/31 00:02:32;;;;;;;1.02;1.02;;;;;;;;;;5075655;28;20027;-84
2024/01/31 00:04:58;;;;;;;0.30;0.30;;;;;;;;;;5077074;28;20028;-85
2024/01/31 00:07:23;;;;;;;0.20;0.20;;;;;;;;;;5073932;28;20070;-84
2024/01/31 00:09:49;;;;;;;4.85;0.77;;;;;;;;;;5080680;28;20020;-84
2024/01/31 00:12:15;;;;;;;0.35;0.35;;;;;;;;;;5078653;28;20552;-81
2024/01/31 00:14:43;;;;;;;0.40;0.40;;;;;;;;;;5078338;28;20111;-84
2024/01/31 00:17:08;;;;;;;0.20;0.20;;;;;;;;;;5077989;28;20079;-83
2024/01/31 00:19:33;;;;;;;0.20;0.20;;;;;;;;;;5079953;28;20456;-84
2024/01/31 00:21:59;;;;;;;1.38;0.68;;;;;;;;;;5075505;28;20039;-83
2024/01/31 00:24:24;;;;;;;4.18;1.20;;;;;;;;;;5079373;28;20387;-83
2024/01/31 00:26:50;;;;;;;0.85;0.85;;;;;;;;;;5080524;28;20159;-84
2024/01/31 00:29:15;;;;;;;0.20;0.20;;;;;;;;;;5076926;28;20071;-85
2024/01/31 00:31:41;;;;;;;0.55;0.55;;;;;;;;;;5079480;28;20039;-85
2024/01/31 00:34:06;;;;;;;0.38;0.38;;;;;;;;;;5083642;28;20090;-84
2024/01/31 00:36:32;;;;;;;1.25;0.63;;;;;;;;;;5085309;28;20024;-83
2024/01/31 00:38:59;;;;;;;0.40;0.40;;;;;;;;;;5083003;28;20060;-83
2024/01/31 00:41:25;;;;;;;0.60;0.60;;;;;;;;;;5085145;28;20020;-84
2024/01/31 00:43:51;;;;;;;0.32;0.32;;;;;;;;;;5082589;28;20028;-84
2024/01/31 00:46:16;;;;;;;0.20;0.20;;;;;;;;;;5079456;28;20033;-84
2024/01/31 00:48:44;;;;;;;0.17;0.17;;;;;;;;;;5080652;28;20027;-84
2024/01/31 00:51:10;;;;;;;0.63;0.60;;;;;;;;;;5086398;28;20040;-84
2024/01/31 00:53:36;;;;;;;0.45;0.45;;;;;;;;;;5080441;28;20061;-84
2024/01/31 00:56:02;;;;;;;1.08;0.77;;;;;;;;;;5081209;28;20129;-84
2024/01/31 00:58:27;;;;;;;0.93;0.88;;;;;;;;;;5086172;28;20032;-85
2024/01/31 01:00:52;;;;;;;0.75;0.75;;;;;;;;;;5084196;28;20031;-84
2024/01/31 01:03:19;;;;;;;0.88;0.73;;;;;;;;;;5082135;28;20024;-83
2024/01/31 01:05:45;;;;;;;0.43;0.43;;;;;;;;;;5082943;28;20024;-85
2024/01/31 01:08:10;;;;;;;4.97;1.30;;;;;;;;;;5081696;28;20032;-83
2024/01/31 01:10:36;;;;;;;0.43;0.43;;;;;;;;;;5082461;28;20062;-85
2024/01/31 01:13:02;;;;;;;0.68;0.68;;;;;;;;;;5081220;28;20081;-85
2024/01/31 01:15:27;;;;;;;2.78;1.77;;;;;;;;;;5082198;28;20052;-84
2024/01/31 01:17:53;;;;;;;0.65;0.65;;;;;;;;;;5081757;28;20474;-84
2024/01/31 01:20:18;;;;;;;0.93;0.93;;;;;;;;;;5079535;28;20029;-84
2024/01/31 01:22:44;;;;;;;0.40;0.40;;;;;;;;;;5086125;28;20039;-84
2024/01/31 01:25:10;;;;;;;0.28;0.28;;;;;;;;;;5080862;28;20111;-84
2024/01/31 01:27:36;;;;;;;0.38;0.38;;;;;;;;;;5087322;28;20024;-83
2024/01/31 01:30:01;;;;;;;1.15;1.05;;;;;;;;;;5077794;28;20031;-84
2024/01/31 01:32:27;;;;;;;0.40;0.40;;;;;;;;;;5083501;28;20032;-85
2024/01/31 01:34:58;;;;;;;1.20;0.57;;;;;;;;;;5078052;28;20028;-85
2024/01/31 01:37:24;;;;;;;0.45;0.45;;;;;;;;;;5079310;28;20016;-84
2024/01/31 01:39:49;;;;;;;0.55;0.55;;;;;;;;;;5087891;28;20078;-85
2024/01/31 01:42:14;;;;;;;0.68;0.68;;;;;;;;;;5079904;28;20466;-83
2024/01/31 01:44:46;;;;;;;1.02;1.00;;;;;;;;;;5076682;28;20052;-83
2024/01/31 01:47:13;;;;;;;0.88;0.88;;;;;;;;;;5083510;28;20153;-83
2024/01/31 01:49:39;;;;;;;0.40;0.40;;;;;;;;;;5076658;28;20392;-84
2024/01/31 01:52:05;;;;;;;0.47;0.47;;;;;;;;;;5080742;28;20036;-84
2024/01/31 01:54:31;;;;;;;0.43;0.43;;;;;;;;;;5080619;28;20085;-85
2024/01/31 01:56:58;;;;;;;0.43;0.43;;;;;;;;;;5085125;28;20110;-84
2024/01/31 01:59:24;;;;;;;0.35;0.35;;;;;;;;;;5083819;28;20226;-84
2024/01/31 02:01:51;;;;;;;0.45;0.45;;;;;;;;;;5075443;28;20103;-84
2024/01/31 02:04:17;;;;;;;5.38;1.45;;;;;;;;;;5083935;28;20024;-85
2024/01/31 02:06:43;;;;;;;1.00;0.90;;;;;;;;;;5079052;28;20909;-84
2024/01/31 02:09:08;;;;;;;3.45;0.90;;;;;;;;;;5079308;28;20028;-83
2024/01/31 02:11:34;;;;;;;0.52;0.52;;;;;;;;;;5083419;28;20066;-84
2024/01/31 02:14:00;;;;;;;0.63;0.50;;;;;;;;;;5082183;28;20024;-84
2024/01/31 02:16:25;;;;;;;0.20;0.20;;;;;;;;;;5080209;28;20041;-84
2024/01/31 02:18:51;;;;;;;0.40;0.40;;;;;;;;;;5080987;28;20021;-84
2024/01/31 02:21:16;;;;;;;0.30;0.30;;;;;;;;;;5076301;28;20021;-84
2024/01/31 02:23:42;;;;;;;3.13;1.02;;;;;;;;;;5085605;28;20025;-84
2024/01/31 02:26:07;;;;;;;7.13;1.85;;;;;;;;;;5077895;28;20471;-85
2024/01/31 02:28:33;;;;;;;0.70;0.70;;;;;;;;;;5077775;28;20032;-84
2024/01/31 02:30:58;;;;;;;1.17;1.13;;;;;;;;;;5084558;28;20028;-84
2024/01/31 02:33:24;;;;;;;1.08;1.08;;;;;;;;;;5081853;28;20032;-83
2024/01/31 02:35:49;;;;;;;0.50;0.50;;;;;;;;;;5083592;28;20035;-83
2024/01/31 02:38:14;;;;;;;0.30;0.30;;;;;;;;;;5079897;28;20019;-84
2024/01/31 02:40:40;;;;;;;1.40;1.30;;;;;;;;;;5082763;28;20027;-84
2024/01/31 02:43:05;;;;;;;0.73;0.73;;;;;;;;;;5082487;28;20107;-83
2024/01/31 02:45:31;;;;;;;2.38;1.00;;;;;;;;;;5079262;28;20387;-84
2024/01/31 02:47:56;;;;;;;0.28;0.28;;;;;;;;;;5078601;28;20035;-84
2024/01/31 02:50:22;;;;;;;2.15;2.05;;;;;;;;;;5080530;28;20081;-85
2024/01/31 02:52:48;;;;;;;0.82;0.82;;;;;;;;;;5081174;28;21976;-84
2024/01/31 02:55:13;;;;;;;2.67;2.40;;;;;;;;;;5082808;28;20485;-84
2024/01/31 02:57:39;;;;;;;1.40;1.17;;;;;;;;;;5080629;28;20093;-85
2024/01/31 03:00:06;;;;;;;0.88;0.88;;;;;;;;;;5081077;28;20470;-84
2024/01/31 03:02:32;;;;;;;1.73;1.25;;;;;;;;;;5078973;28;20026;-84
2024/01/31 03:04:57;;;;;;;13.82;2.88;;;;;;;;;;5079946;28;20103;-85
2024/01/31 03:07:23;;;;;;;1.15;1.08;;;;;;;;;;5080143;28;20028;-84
2024/01/31 03:09:48;;;;;;;1.13;0.90;;;;;;;;;;5078459;28;20024;-84
2024/01/31 03:12:13;;;;;;;0.35;0.35;;;;;;;;;;5079937;28;20161;-83
2024/01/31 03:14:39;;;;;;;1.27;1.00;;;;;;;;;;5079736;28;20019;-84
2024/01/31 03:19:48;;;;;;;0.82;0.82;;;;;;;;;;5076048;28;20116;-84
2024/01/31 03:22:14;;;;;;;1.30;1.20;;;;;;;;;;5076189;28;20431;-83
2024/01/31 03:24:39;;;;;;;0.73;0.73;;;;;;;;;;5079535;28;20160;-83
2024/01/31 03:27:05;;;;;;;0.38;0.38;;;;;;;;;;5078857;28;20028;-83
2024/01/31 03:29:30;;;;;;;0.30;0.30;;;;;;;;;;5080003;28;20400;-84
2024/01/31 03:31:57;;;;;;;0.85;0.77;;;;;;;;;;5079943;28;20040;-83
2024/01/31 03:34:23;;;;;;;0.15;0.15;;;;;;;;;;5074998;28;20020;-83
2024/01/31 03:36:48;;;;;;;0.40;0.40;;;;;;;;;;5078117;28;20029;-83
2024/01/31 03:39:14;;;;;;;0.20;0.20;;;;;;;;;;5079348;28;20066;-83
2024/01/31 03:41:44;;;;;;;0.65;0.63;;;;;;;;;;5081864;28;20023;-84
2024/01/31 03:44:10;;;;;;;0.75;0.75;;;;;;;;;;5080228;28;20025;-84
2024/01/31 03:46:35;;;;;;;0.50;0.50;;;;;;;;;;5075961;28;20028;-84
2024/01/31 03:49:00;;;;;;;0.40;0.40;;;;;;;;;;5074382;28;20055;-84
2024/01/31 03:51:35;;;;;;;0.30;0.30;;;;;;;;;;5077360;28;20036;-83
2024/01/31 03:54:00;;;;;;;0.40;0.40;;;;;;;;;;5079833;28;20032;-83
2024/01/31 03:56:26;;;;;;;0.32;0.32;;;;;;;;;;5083394;28;20491;-84
2024/01/31 03:58:51;;;;;;;0.90;0.85;;;;;;;;;;5085050;28;20441;-83
2024/01/31 04:01:17;;;;;;;0.20;0.20;;;;;;;;;;5081134;28;20036;-84
2024/01/31 04:03:44;;;;;;;0.40;0.40;;;;;;;;;;5082840;28;20029;-84
2024/01/31 04:06:10;;;;;;;0.30;0.30;;;;;;;;;;5078937;28;20119;-84
2024/01/31 04:08:35;;;;;;;0.17;0.17;;;;;;;;;;5075918;28;20092;-84
2024/01/31 04:11:01;;;;;;;0.52;0.52;;;;;;;;;;5082078;28;20024;-84
2024/01/31 04:13:26;;;;;;;0.40;0.40;;;;;;;;;;5079097;28;20020;-84
2024/01/31 04:15:55;;;;;;;0.30;0.30;;;;;;;;;;5084768;28;20019;-84
2024/01/31 04:18:21;;;;;;;0.50;0.50;;;;;;;;;;5077780;28;20511;-84
2024/01/31 04:20:46;;;;;;;0.35;0.35;;;;;;;;;;5079944;28;20063;-83
2024/01/31 04:23:12;;;;;;;0.55;0.40;;;;;;;;;;5084924;28;20028;-84
2024/01/31 04:25:38;;;;;;;0.20;0.20;;;;;;;;;;5081853;28;20036;-84
2024/01/31 04:28:03;;;;;;;0.47;0.38;;;;;;;;;;5081519;28;20035;-84
2024/01/31 04:30:29;;;;;;;0.98;0.63;;;;;;;;;;5082744;28;20020;-84
2024/01/31 04:32:54;;;;;;;0.75;0.75;;;;;;;;;;5076365;28;20467;-84
2024/01/31 04:35:19;;;;;;;0.68;0.68;;;;;;;;;;5080537;28;20107;-84
2024/01/31 04:37:45;;;;;;;0.70;0.30;;;;;;;;;;5082283;28;20028;-85
2024/01/31 04:40:11;;;;;;;2.28;0.60;;;;;;;;;;5083349;28;20412;-84
2024/01/31 04:42:37;;;;;;;0.25;0.25;;;;;;;;;;5080556;28;20527;-84
2024/01/31 04:45:03;;;;;;;0.40;0.40;;;;;;;;;;5083421;28;20107;-84
2024/01/31 04:47:28;;;;;;;1.48;1.38;;;;;;;;;;5084798;28;20115;-84
2024/01/31 04:50:01;;;;;;;2.00;1.08;;;;;;;;;;5082870;28;20095;-83
2024/01/31 04:52:26;;;;;;;0.35;0.35;;;;;;;;;;5086445;28;20052;-84
2024/01/31 04:54:53;;;;;;;0.50;0.50;;;;;;;;;;5083034;28;20101;-83
2024/01/31 04:57:19;;;;;;;0.70;0.70;;;;;;;;;;5081089;28;20078;-84
2024/01/31 04:59:44;;;;;;;0.28;0.28;;;;;;;;;;5084225;28;20024;-84
2024/01/31 05:02:10;;;;;;;0.80;0.40;;;;;;;;;;5080274;28;20025;-83
2024/01/31 05:04:36;;;;;;;0.20;0.20;;;;;;;;;;5079219;28;20029;-84
2024/01/31 05:07:02;;;;;;;0.55;0.55;;;;;;;;;;5081471;28;20024;-82
2024/01/31 05:09:27;;;;;;;0.63;0.63;;;;;;;;;;5080514;28;20031;-83
2024/01/31 05:11:53;;;;;;;0.40;0.40;;;;;;;;;;5084278;28;20026;-83
2024/01/31 05:14:18;;;;;;;2.05;1.50;;;;;;;;;;5081468;28;20032;-83
2024/01/31 05:16:44;;;;;;;1.10;0.95;;;;;;;;;;5082194;28;20055;-83
2024/01/31 05:19:11;;;;;;;0.73;0.73;;;;;;;;;;5086573;28;20024;-83
2024/01/31 05:21:50;;;;;;;0.28;0.28;;;;;;;;;;5079422;28;20031;-83
2024/01/31 05:24:17;;;;;;;0.10;0.10;;;;;;;;;;5080233;28;20388;-83
2024/01/31 05:26:43;;;;;;;0.35;0.35;;;;;;;;;;5083048;28;20271;-83
2024/01/31 05:29:15;;;;;;;0.40;0.40;;;;;;;;;;5081357;28;20107;-83
2024/01/31 05:31:40;;;;;;;0.20;0.20;;;;;;;;;;5078214;28;20034;-83
2024/01/31 05:34:07;;;;;;;0.40;0.40;;;;;;;;;;5081440;28;20070;-83
2024/01/31 05:36:32;;;;;;;0.40;0.40;;;;;;;;;;5075377;28;20020;-83
2024/01/31 05:38:57;;;;;;;0.20;0.20;;;;;;;;;;5079338;28;20114;-83
2024/01/31 05:41:23;;;;;;;0.20;0.20;;;;;;;;;;5079952;28;20027;-83
2024/01/31 05:43:51;;;;;;;0.20;0.20;;;;;;;;;;5080732;28;20115;-84
2024/01/31 05:46:17;;;;;;;0.20;0.20;;;;;;;;;;5084941;28;20407;-83
2024/01/31 05:48:44;;;;;;;1.55;1.08;;;;;;;;;;5079805;28;20023;-83
2024/01/31 05:51:09;;;;;;;1.92;1.42;;;;;;;;;;5078387;28;20360;-83
2024/01/31 05:53:36;;;;;;;1.48;1.38;;;;;;;;;;5086662;28;20031;-83
2024/01/31 05:56:02;;;;;;;1.48;1.38;;;;;;;;;;5082052;28;20036;-83
2024/01/31 05:58:27;;;;;;;0.65;0.65;;;;;;;;;;5083716;28;20073;-84
2024/01/31 06:00:53;;;;;;;2.60;1.02;;;;;;;;;;5081459;28;20364;-83
2024/01/31 06:03:18;;;;;;;1.73;0.82;;;;;;;;;;5086180;28;20039;-84
2024/01/31 06:05:44;;;;;;;0.60;0.60;;;;;;;;;;5079359;28;20029;-82
2024/01/31 06:08:09;;;;;;;2.80;1.25;;;;;;;;;;5079447;28;20132;-82
2024/01/31 06:10:38;;;;;;;0.57;0.57;;;;;;;;;;5081832;28;20024;-84
2024/01/31 06:13:04;;;;;;;0.53;0.53;;;;;;;;;;5078271;28;20455;-82
2024/01/31 06:15:29;;;;;;;2.63;1.75;;;;;;;;;;5076999;28;20094;-84
2024/01/31 06:17:55;;;;;;;3.20;1.67;;;;;;;;;;5082364;28;20177;-82
2024/01/31 06:20:20;;;;;;;1.58;1.45;;;;;;;;;;5080272;28;20747;-85
2024/01/31 06:22:46;;;;;;;2.80;2.33;;;;;;;;;;5079636;28;20024;-82
2024/01/31 06:25:11;;;;;;;2.10;1.17;;;;;;;;;;5079081;28;20031;-83
2024/01/31 06:27:37;;;;;;;1.70;1.60;;;;;;;;;;5083768;28;20020;-83
2024/01/31 06:30:19;;;;;;;5.18;1.92;;;;;;;;;;5081001;28;20439;-84
2024/01/31 06:32:47;;;;;;;0.85;0.82;;;;;;;;;;5079897;28;20024;-83
2024/01/31 06:35:13;;;;;;;0.73;0.73;;;;;;;;;;5077313;28;20427;-83
2024/01/31 06:37:39;;;;;;;2.22;2.03;;;;;;;;;;5082702;28;20039;-84
2024/01/31 06:40:05;;;;;;;2.25;2.15;;;;;;;;;;5080647;28;20029;-83
2024/01/31 06:42:31;;;;;;;1.75;1.65;;;;;;;;;;5080821;28;20111;-84
2024/01/31 06:44:56;;;;;;;5.00;3.25;;;;;;;;;;5083978;28;20136;-84
2024/01/31 06:47:21;;;;;;;1.55;1.40;;;;;;;;;;5078412;28;20028;-84
2024/01/31 06:49:47;;;;;;;2.17;1.98;;;;;;;;;;5080254;28;20025;-84
2024/01/31 06:52:12;;;;;;;5.90;4.00;;;;;;;;;;5081395;28;20028;-83
2024/01/31 06:54:38;;;;;;;2.53;2.33;;;;;;;;;;5078544;28;20028;-84
2024/01/31 06:57:03;;;;;;;2.97;2.17;;;;;;;;;;5082489;28;20043;-82
2024/01/31 06:59:29;;;;;;;1.63;1.52;;;;;;;;;;5081529;28;20024;-83
2024/01/31 07:01:54;;;;;;;2.50;2.00;;;;;;;;;;5078053;28;20032;-82
2024/01/31 07:04:22;;;;;;;2.88;1.40;;;;;;;;;;5080134;28;20035;-83
2024/01/31 07:06:51;;;;;;;1.38;1.27;;;;;;;;;;5081447;28;20032;-83
2024/01/31 07:09:17;;;;;;;1.23;1.13;;;;;;;;;;5079156;28;20498;-83
2024/01/31 07:11:42;;;;;;;2.08;1.88;;;;;;;;;;5080221;28;20028;-83
2024/01/31 07:14:11;;;;;;;9.23;2.55;;;;;;;;;;5081415;28;20036;-84
2024/01/31 07:16:36;;;;;;;6.20;2.05;;;;;;;;;;5077765;28;20488;-85
2024/01/31 07:19:02;;;;;;;10.20;4.00;;;;;;;;;;5083390;28;20030;-85
2024/01/31 07:21:27;;;;;;;7.07;4.47;;;;;;;;;;5081447;28;20039;-85
2024/01/31 07:23:53;;;;;;;7.45;4.85;;;;;;;;;;5080257;28;20020;-85
2024/01/31 07:26:23;;;;;;;3.72;3.05;;;;;;;;;;5082441;28;20055;-84
2024/01/31 07:28:48;;;;;;;3.20;2.67;;;;;;;;;;5081291;28;20047;-84
2024/01/31 07:31:14;;;;;;;9.32;4.45;;;;;;;;;;5080477;28;20064;-83
2024/01/31 07:33:39;;;;;;;5.35;4.78;;;;;;;;;;5078483;28;20539;-83
2024/01/31 07:36:05;;;;;;;2.97;2.78;;;;;;;;;;5084006;28;21305;-83
2024/01/31 07:38:30;;;;;;;2.95;1.88;;;;;;;;;;5080750;28;20349;-82
2024/01/31 07:40:56;;;;;;;2.65;2.45;;;;;;;;;;5076919;28;20151;-83
2024/01/31 07:43:21;;;;;;;8.25;2.47;;;;;;;;;;5083027;28;20031;-84
2024/01/31 07:45:46;;;;;;;6.55;3.50;;;;;;;;;;5077228;28;20467;-83
2024/01/31 07:48:12;;;;;;;3.22;2.95;;;;;;;;;;5080362;28;20028;-83
2024/01/31 07:50:37;;;;;;;3.60;3.28;;;;;;;;;;5083423;28;20020;-82
2024/01/31 07:53:03;;;;;;;8.65;4.22;;;;;;;;;;5083901;28;20060;-83
2024/01/31 07:55:31;;;;;;;15.48;4.97;;;;;;;;;;5082678;28;20027;-82
2024/01/31 07:57:57;;;;;;;5.22;3.92;;;;;;;;;;5081702;28;20024;-83
2024/01/31 08:00:22;;;;;;;4.57;3.15;;;;;;;;;;5076572;28;20032;-82
2024/01/31 08:02:48;;;;;;;2.80;2.60;;;;;;;;;;5083218;28;20855;-83
2024/01/31 08:05:14;;;;;;;3.20;2.90;;;;;;;;;;5081673;28;20089;-83
2024/01/31 08:07:42;;;;;;;7.50;4.50;;;;;;;;;;5080652;28;20024;-82
2024/01/31 08:10:12;;;;;;;2.72;2.50;;;;;;;;;;5079610;28;20085;-81
2024/01/31 08:12:37;;;;;;;3.75;3.33;;;;;;;;;;5080509;28;20115;-81
2024/01/31 08:15:03;;;;;;;3.22;3.00;;;;;;;;;;5081678;28;20095;-82
2024/01/31 08:17:29;;;;;;;7.22;3.80;;;;;;;;;;5083269;28;20048;-81
2024/01/31 08:19:54;;;;;;;4.82;4.40;;;;;;;;;;5080273;28;20028;-81
2024/01/31 08:22:20;;;;;;;5.13;4.53;;;;;;;;;;5077815;28;20047;-82
2024/01/31 08:24:45;;;;;;;3.17;2.20;;;;;;;;;;5079656;28;20107;-81
2024/01/31 08:27:11;;;;;;;5.63;3.10;;;;;;;;;;5082449;28;20024;-81
2024/01/31 08:29:36;;;;;;;3.75;3.33;;;;;;;;;;5083184;28;20032;-82
2024/01/31 08:32:02;;;;;;;3.42;3.00;;;;;;;;;;5083970;28;20030;-82
2024/01/31 08:34:27;;;;;;;2.50;2.38;;;;;;;;;;5076706;28;20035;-82
2024/01/31 08:36:53;;;;;;;4.65;2.58;;;;;;;;;;5081163;28;20025;-82
2024/01/31 08:39:18;;;;;;;7.93;5.75;;;;;;;;;;5079658;28;20024;-82
2024/01/31 08:41:44;;;;;;;5.10;3.53;;;;;;;;;;5079585;28;20391;-81
2024/01/31 08:44:09;;;;;;;4.53;4.20;;;;;;;;;;5080562;28;20445;-82
2024/01/31 08:46:35;;;;;;;5.90;4.97;;;;;;;;;;5081904;28;20035;-81
2024/01/31 08:49:00;;;;;;;2.97;2.42;;;;;;;;;;5084879;28;20802;-83
2024/01/31 08:51:26;;;;;;;3.63;3.15;;;;;;;;;;5085393;28;20027;-82
2024/01/31 08:53:52;;;;;;;4.25;2.33;;;;;;;;;;5080300;28;20032;-83
2024/01/31 08:56:17;;;;;;;4.55;4.20;;;;;;;;;;5087265;28;20080;-83
2024/01/31 08:58:42;;;;;;;5.97;2.50;;;;;;;;;;5087000;28;20028;-84
2024/01/31 09:01:08;;;;;;;5.97;3.75;;;;;;;;;;5082153;28;20025;-84
2024/01/31 09:03:33;;;;;;;8.07;4.35;;;;;;;;;;5083002;28;20021;-85
2024/01/31 09:05:59;;;;;;;5.97;4.38;;;;;;;;;;5086326;28;20073;-82
2024/01/31 09:08:24;;;;;;;7.05;3.22;;;;;;;;;;5081056;28;20093;-85
2024/01/31 09:10:49;;;;;;;8.00;4.88;;;;;;;;;;5083212;28;20033;-84
2024/01/31 09:13:15;;;;;;;10.00;4.82;;;;;;;;;;5086912;28;20493;-84
2024/01/31 09:15:40;;;;;;;4.15;3.40;;;;;;;;;;5083451;28;20033;-85
2024/01/31 09:18:06;;;;;;;7.07;3.50;;;;;;;;;;5082643;28;20040;-81
2024/01/31 09:20:31;;;;;;;4.68;4.28;;;;;;;;;;5080518;28;20081;-83
2024/01/31 09:22:57;;;;;;;5.63;4.22;;;;;;;;;;5079988;28;20531;-81
2024/01/31 09:25:23;;;;;;;4.15;3.75;;;;;;;;;;5073472;28;20033;-83
2024/01/31 09:27:48;;;;;;;5.50;3.97;;;;;;;;;;5077784;28;20111;-84
2024/01/31 09:30:14;;;;;;;7.45;4.47;;;;;;;;;;5073271;28;20050;-82
2024/01/31 09:32:39;;;;;;;6.30;5.00;;;;;;;;;;5078048;28;20035;-83
2024/01/31 09:35:05;;;;;;;8.93;3.95;;;;;;;;;;5084363;28;20028;-83
2024/01/31 09:37:32;;;;;;;4.00;3.60;;;;;;;;;;5087479;28;20074;-83
2024/01/31 09:39:58;;;;;;;4.25;3.92;;;;;;;;;;5078389;28;20028;-84
2024/01/31 09:42:24;;;;;;;2.80;2.53;;;;;;;;;;5085394;28;20024;-84
2024/01/31 09:44:50;;;;;;;7.78;3.88;;;;;;;;;;5083839;28;20028;-82
2024/01/31 09:47:16;;;;;;;3.78;2.67;;;;;;;;;;5083614;28;20020;-83
2024/01/31 09:49:42;;;;;;;6.65;4.93;;;;;;;;;;5086155;28;20594;-83
2024/01/31 09:52:11;;;;;;;6.30;5.10;;;;;;;;;;5082604;28;20025;-83
2024/01/31 09:54:39;;;;;;;2.42;2.22;;;;;;;;;;5079954;28;20047;-83
2024/01/31 09:57:05;;;;;;;5.97;4.18;;;;;;;;;;5079851;28;20117;-82
2024/01/31 09:59:30;;;;;;;12.13;7.13;;;;;;;;;;5081861;28;20479;-82
2024/01/31 10:01:57;;;;;;;6.30;5.28;;;;;;;;;;5082429;28;20031;-82
2024/01/31 10:04:22;;;;;;;11.57;5.40;;;;;;;;;;5080268;28;20036;-83
2024/01/31 10:06:48;;;;;;;4.78;4.38;;;;;;;;;;5081706;28;20024;-83
2024/01/31 10:09:14;;;;;;;7.15;4.35;;;;;;;;;;5079952;28;20024;-84
2024/01/31 10:11:45;;;;;;;6.40;3.53;;;;;;;;;;5078656;28;20380;-84
2024/01/31 10:14:12;;;;;;;5.35;4.82;;;;;;;;;;5076891;28;20035;-82
2024/01/31 10:16:37;;;;;;;6.43;4.35;;;;;;;;;;5078793;28;20055;-81
2024/01/31 10:19:30;;;;;;;7.28;4.65;;;;;;;;;;5077497;28;20029;-82
2024/01/31 10:21:57;;;;;;;9.82;6.10;;;;;;;;;;5079216;28;20028;-81
2024/01/31 10:24:23;;;;;;;5.95;4.93;;;;;;;;;;5080301;28;20036;-81
2024/01/31 10:26:51;;;;;;;8.57;4.75;;;;;;;;;;5078186;28;20394;-81
2024/01/31 10:29:18;;;;;;;2.72;2.53;;;;;;;;;;5083065;28;20032;-82
2024/01/31 10:31:46;;;;;;;4.55;3.90;;;;;;;;;;5080630;28;20032;-81
2024/01/31 10:34:13;;;;;;;9.05;5.25;;;;;;;;;;5076094;28;20481;-81
2024/01/31 10:36:40;;;;;;;5.43;4.75;;;;;;;;;;5077590;28;20024;-81
2024/01/31 10:39:11;;;;;;;7.05;5.53;;;;;;;;;;5078787;28;20028;-84
2024/01/31 10:41:46;;;;;;;7.55;5.03;;;;;;;;;;5078886;28;20036;-83
2024/01/31 10:44:14;;;;;;;7.30;3.85;;;;;;;;;;5087153;28;20043;-82
2024/01/31 10:46:41;;;;;;;8.75;5.72;;;;;;;;;;5080684;28;20036;-80
2024/01/31 10:49:06;;;;;;;6.22;5.05;;;;;;;;;;5081244;28;20039;-79
2024/01/31 10:51:33;;;;;;;5.65;5.13;;;;;;;;;;5084273;28;20094;-81
2024/01/31 10:54:01;;;;;;;6.07;4.40;;;;;;;;;;5078663;28;20044;-81
2024/01/31 10:56:30;;;;;;;6.32;4.57;;;;;;;;;;5077107;28;20032;-83
2024/01/31 10:58:59;;;;;;;10.32;5.10;;;;;;;;;;5081453;28;20077;-81
2024/01/31 11:01:30;;;;;;;5.97;4.65;;;;;;;;;;5080265;28;20036;-80
2024/01/31 11:03:58;;;;;;;5.22;4.47;;;;;;;;;;5079573;28;20035;-81
2024/01/31 11:06:24;;;;;;;5.80;4.50;;;;;;;;;;5065562;28;20033;-81
2024/01/31 11:08:50;;;;;;;10.52;6.97;;;;;;;;;;5069589;28;20020;-80
2024/01/31 11:11:19;;;;;;;5.53;4.93;;;;;;;;;;5074675;28;20043;-80
2024/01/31 11:13:44;;;;;;;6.82;4.65;;;;;;;;;;5070506;28;20479;-80
2024/01/31 11:16:10;;;;;;;9.77;4.93;;;;;;;;;;5071806;28;20033;-80
2024/01/31 11:18:36;;;;;;;7.20;4.38;;;;;;;;;;5070206;28;20050;-82
2024/01/31 11:21:06;;;;;;;6.35;4.07;;;;;;;;;;5068754;28;20036;-81
2024/01/31 11:23:33;;;;;;;11.35;6.65;;;;;;;;;;5080581;28;20021;-82
2024/01/31 11:26:01;;;;;;;9.77;4.85;;;;;;;;;;5080567;28;20132;-82
2024/01/31 11:28:27;;;;;;;6.68;5.13;;;;;;;;;;5083329;28;20101;-82
2024/01/31 11:30:53;;;;;;;5.75;5.18;;;;;;;;;;5075645;28;20035;-83
2024/01/31 11:33:20;;;;;;;7.80;5.00;;;;;;;;;;5077261;28;20452;-83
2024/01/31 11:35:46;;;;;;;4.95;4.32;;;;;;;;;;5077190;28;20020;-83
2024/01/31 11:38:15;;;;;;;6.90;4.50;;;;;;;;;;5075073;28;20039;-82
2024/01/31 11:40:44;;;;;;;7.40;5.18;;;;;;;;;;5075978;28;20024;-82
2024/01/31 11:45:54;;;;;;;5.50;4.20;;;;;;;;;;5081095;28;20470;-83
2024/01/31 11:48:21;;;;;;;6.50;4.97;;;;;;;;;;5077124;28;20165;-82
2024/01/31 11:50:46;;;;;;;10.40;6.05;;;;;;;;;;5075914;28;20039;-84
2024/01/31 11:53:12;;;;;;;6.88;4.35;;;;;;;;;;5083558;28;20024;-82
2024/01/31 11:55:39;;;;;;;4.25;3.50;;;;;;;;;;5081031;28;20503;-83
2024/01/31 11:58:04;;;;;;;8.90;4.63;;;;;;;;;;5076865;28;20077;-82
2024/01/31 12:00:31;;;;;;;7.35;4.18;;;;;;;;;;5080865;28;20430;-82
2024/01/31 12:02:57;;;;;;;4.45;3.53;;;;;;;;;;5082201;28;20052;-82
2024/01/31 12:05:22;;;;;;;9.88;5.65;;;;;;;;;;5078442;28;20063;-81
2024/01/31 12:08:00;;;;;;;5.10;3.70;;;;;;;;;;5074896;28;20039;-83
2024/01/31 12:10:26;;;;;;;4.45;4.03;;;;;;;;;;5073980;28;20031;-81
2024/01/31 12:12:52;;;;;;;6.18;3.88;;;;;;;;;;5075228;28;20372;-84
2024/01/31 12:15:17;;;;;;;6.65;4.25;;;;;;;;;;5072187;28;20028;-81
2024/01/31 12:17:44;;;;;;;9.50;4.90;;;;;;;;;;5076573;28;20388;-83
2024/01/31 12:20:11;;;;;;;7.13;4.90;;;;;;;;;;5075433;28;20037;-81
2024/01/31 12:22:37;;;;;;;14.18;4.80;;;;;;;;;;5080312;28;20531;-82
2024/01/31 12:25:03;;;;;;;7.20;4.75;;;;;;;;;;5080239;28;20029;-81
2024/01/31 12:27:28;;;;;;;7.10;4.07;;;;;;;;;;5079179;28;20384;-81
2024/01/31 12:29:54;;;;;;;18.02;4.00;;;;;;;;;;5077843;28;20017;-81
2024/01/31 12:32:19;;;;;;;4.93;3.30;;;;;;;;;;5080164;28;20105;-81
2024/01/31 12:34:45;;;;;;;6.03;4.50;;;;;;;;;;5084194;28;20020;-80
2024/01/31 12:37:10;;;;;;;6.35;3.80;;;;;;;;;;5079457;28;20028;-80
2024/01/31 12:39:36;;;;;;;4.35;3.95;;;;;;;;;;5080064;28;20476;-83
2024/01/31 12:42:03;;;;;;;4.70;3.70;;;;;;;;;;5079908;28;20024;-81
2024/01/31 12:44:29;;;;;;;4.85;3.85;;;;;;;;;;5079914;28;20103;-82
2024/01/31 12:46:54;;;;;;;4.90;3.10;;;;;;;;;;5078596;28;20104;-82
2024/01/31 12:49:20;;;;;;;4.13;3.33;;;;;;;;;;5079391;28;20440;-82
2024/01/31 12:51:45;;;;;;;3.22;2.80;;;;;;;;;;5082179;28;20069;-84
2024/01/31 12:54:11;;;;;;;5.82;4.85;;;;;;;;;;5078366;28;20063;-82
2024/01/31 12:56:38;;;;;;;9.13;4.20;;;;;;;;;;5080797;28;20389;-81
2024/01/31 12:59:03;;;;;;;4.80;3.47;;;;;;;;;;5080342;28;20051;-81
2024/01/31 13:01:31;;;;;;;7.50;4.88;;;;;;;;;;5081305;28;20519;-82
2024/01/31 13:03:57;;;;;;;7.97;3.10;;;;;;;;;;5082303;28;20027;-82
2024/01/31 13:06:22;;;;;;;8.30;3.70;;;;;;;;;;5080647;28;20040;-82
2024/01/31 13:08:53;;;;;;;3.55;2.72;;;;;;;;;;5080209;28;20531;-81
2024/01/31 13:11:20;;;;;;;4.65;2.50;;;;;;;;;;5079290;28;20031;-82
2024/01/31 13:13:49;;;;;;;3.83;2.10;;;;;;;;;;5081750;28;20031;-82
2024/01/31 13:16:15;;;;;;;4.47;2.10;;;;;;;;;;5080969;28;20040;-81
2024/01/31 13:18:40;;;;;;;6.25;3.03;;;;;;;;;;5078205;28;20032;-82
2024/01/31 13:21:06;;;;;;;2.15;1.35;;;;;;;;;;5081840;28;20040;-81
2024/01/31 13:23:33;;;;;;;2.63;1.90;;;;;;;;;;5078741;28;20099;-82
2024/01/31 13:25:59;;;;;;;3.55;2.60;;;;;;;;;;5079642;28;20406;-82
2024/01/31 13:28:26;;;;;;;14.32;2.70;;;;;;;;;;5084331;28;20033;-81
2024/01/31 13:30:52;;;;;;;1.88;1.55;;;;;;;;;;5082525;28;20020;-81
2024/01/31 13:33:19;;;;;;;1.95;1.30;;;;;;;;;;5080495;28;20035;-82
2024/01/31 13:35:45;;;;;;;0.85;0.60;;;;;;;;;;5080511;28;20206;-82
2024/01/31 13:38:11;;;;;;;0.50;0.50;;;;;;;;;;5080091;28;20039;-82
2024/01/31 13:40:36;;;;;;;0.68;0.68;;;;;;;;;;5084895;28;20023;-82
2024/01/31 13:43:02;;;;;;;0.85;0.60;;;;;;;;;;5083968;28;20384;-82
2024/01/31 13:45:28;;;;;;;0.75;0.57;;;;;;;;;;5077717;28;20055;-83
2024/01/31 13:47:53;;;;;;;1.50;0.73;;;;;;;;;;5078319;28;20024;-82
2024/01/31 13:50:19;;;;;;;0.50;0.50;;;;;;;;;;5080069;28;20016;-81
2024/01/31 13:52:45;;;;;;;1.27;0.57;;;;;;;;;;5082594;28;20527;-82
2024/01/31 13:55:10;;;;;;;0.95;0.68;;;;;;;;;;5087053;28;20166;-82
2024/01/31 13:57:35;;;;;;;2.45;0.50;;;;;;;;;;5076226;28;20036;-82
2024/01/31 14:00:04;;;;;;;2.00;1.27;;;;;;;;;;5077126;28;20024;-81
2024/01/31 14:02:31;;;;;;;3.70;1.48;;;;;;;;;;5078138;28;20035;-82
2024/01/31 14:04:56;;;;;;;0.57;0.57;;;;;;;;;;5078186;28;20110;-80
2024/01/31 14:07:22;;;;;;;0.88;0.55;;;;;;;;;;5076578;28;20597;-82
2024/01/31 14:09:47;;;;;;;0.40;0.40;;;;;;;;;;5075927;28;20020;-83
2024/01/31 14:12:15;;;;;;;1.15;1.08;;;;;;;;;;5083985;28;20028;-82
2024/01/31 14:14:40;;;;;;;4.63;1.65;;;;;;;;;;5078280;28;20032;-83
2024/01/31 14:17:06;;;;;;;0.95;0.50;;;;;;;;;;5081328;28;20048;-81
2024/01/31 14:19:32;;;;;;;0.15;0.15;;;;;;;;;;5079260;28;20419;-84
2024/01/31 14:21:58;;;;;;;0.20;0.20;;;;;;;;;;5076586;28;20028;-82
2024/01/31 14:24:24;;;;;;;0.38;0.35;;;;;;;;;;5083000;28;20400;-82
2024/01/31 14:26:49;;;;;;;0.73;0.60;;;;;;;;;;5080907;28;20027;-82
2024/01/31 14:29:15;;;;;;;0.30;0.30;;;;;;;;;;5079398;28;20024;-81
2024/01/31 14:31:44;;;;;;;0.60;0.60;;;;;;;;;;5078631;28;20032;-81
2024/01/31 14:34:13;;;;;;;0.20;0.20;;;;;;;;;;5075890;28;20083;-82
2024/01/31 14:36:43;;;;;;;0.40;0.40;;;;;;;;;;5081013;28;20032;-81
2024/01/31 14:39:09;;;;;;;0.20;0.20;;;;;;;;;;5076179;28;20534;-83
2024/01/31 14:41:42;;;;;;;0.43;0.43;;;;;;;;;;5076273;28;20028;-82